Time;durP1;ratioP1;P1;durP2;ratioP2;P2;SDS_P1;SDS_P2;PMS_P1;PMS_P2;Temp;Humidity;BMP_temperature;BMP_pressure;BME280_temperature;BME280_humidity;BME280_pressure;Samples;Min_cycle;Max_cycle;Signal;HPM_P1;HPM_P2
2022/09/09 00:01:54;;;;;;;11.93;3.47;;;;;;;;;;5064776;28;20238;-81
2022/09/09 00:04:28;;;;;;;12.50;3.37;;;;;;;;;;5068127;28;20252;-81
2022/09/09 00:07:02;;;;;;;14.13;2.90;;;;;;;;;;5056258;28;20202;-81
2022/09/09 00:09:30;;;;;;;12.13;3.10;;;;;;;;;;5063376;28;20575;-81
2022/09/09 00:12:03;;;;;;;13.80;3.63;;;;;;;;;;5063226;28;20664;-81
2022/09/09 00:14:36;;;;;;;13.53;3.50;;;;;;;;;;5055970;28;20210;-81
2022/09/09 00:17:05;;;;;;;11.00;3.47;;;;;;;;;;5058503;28;20617;-80
2022/09/09 00:19:39;;;;;;;13.50;3.17;;;;;;;;;;5063749;28;20216;-81
2022/09/09 00:22:14;;;;;;;14.67;3.67;;;;;;;;;;5065078;28;20293;-80
2022/09/09 00:24:44;;;;;;;14.03;3.50;;;;;;;;;;5054301;28;20231;-80
2022/09/09 00:27:16;;;;;;;14.70;3.53;;;;;;;;;;5066050;28;20207;-80
2022/09/09 00:29:45;;;;;;;18.87;3.60;;;;;;;;;;5056525;28;20642;-81
2022/09/09 00:32:14;;;;;;;17.50;3.33;;;;;;;;;;5062724;28;20258;-81
2022/09/09 00:34:44;;;;;;;14.87;3.53;;;;;;;;;;5054368;28;20278;-81
2022/09/09 00:37:11;;;;;;;22.73;3.90;;;;;;;;;;5055643;28;20229;-81
2022/09/09 00:39:41;;;;;;;15.67;3.47;;;;;;;;;;5063826;28;20228;-80
2022/09/09 00:42:14;;;;;;;14.07;3.40;;;;;;;;;;5062942;28;20273;-81
2022/09/09 00:44:46;;;;;;;17.70;3.53;;;;;;;;;;5059860;28;20195;-80
2022/09/09 00:47:25;;;;;;;12.40;3.20;;;;;;;;;;5072982;28;20253;-81
2022/09/09 00:50:00;;;;;;;16.63;4.00;;;;;;;;;;5068971;28;20227;-81
2022/09/09 00:52:31;;;;;;;12.53;3.40;;;;;;;;;;5064415;28;20288;-81
2022/09/09 00:55:04;;;;;;;18.20;4.00;;;;;;;;;;5062233;28;20274;-81
2022/09/09 00:57:32;;;;;;;18.40;4.00;;;;;;;;;;5070550;28;20679;-81
2022/09/09 01:00:14;;;;;;;11.20;3.93;;;;;;;;;;5071000;28;20230;-81
2022/09/09 01:02:48;;;;;;;17.87;4.37;;;;;;;;;;5072159;28;20274;-81
2022/09/09 01:05:21;;;;;;;16.07;3.90;;;;;;;;;;5058375;28;20242;-81
2022/09/09 01:07:50;;;;;;;12.93;3.97;;;;;;;;;;5069052;28;20195;-81
2022/09/09 01:10:24;;;;;;;15.23;3.93;;;;;;;;;;5060585;28;20278;-81
2022/09/09 01:12:53;;;;;;;18.50;4.50;;;;;;;;;;5059137;28;20220;-81
2022/09/09 01:15:24;;;;;;;16.30;3.87;;;;;;;;;;5071641;28;20276;-81
2022/09/09 01:17:53;;;;;;;14.50;4.10;;;;;;;;;;5072962;28;20196;-81
2022/09/09 01:20:25;;;;;;;19.37;3.83;;;;;;;;;;5068224;28;20285;-81
2022/09/09 01:23:02;;;;;;;15.67;3.97;;;;;;;;;;5061319;28;20223;-81
2022/09/09 01:25:31;;;;;;;15.77;3.80;;;;;;;;;;5072388;28;20285;-81
2022/09/09 01:28:01;;;;;;;14.70;3.87;;;;;;;;;;5071128;28;20230;-81
2022/09/09 01:30:29;;;;;;;21.27;4.17;;;;;;;;;;5065364;28;20951;-81
2022/09/09 01:33:00;;;;;;;19.23;4.40;;;;;;;;;;5062709;28;20251;-81
2022/09/09 01:35:34;;;;;;;14.50;3.70;;;;;;;;;;5058521;28;20265;-81
2022/09/09 01:38:02;;;;;;;14.90;3.90;;;;;;;;;;5067837;28;20257;-81
2022/09/09 01:40:29;;;;;;;14.17;3.73;;;;;;;;;;5067499;28;20236;-81
2022/09/09 01:42:57;;;;;;;15.43;4.40;;;;;;;;;;5063269;28;20310;-81
2022/09/09 01:45:26;;;;;;;17.23;4.10;;;;;;;;;;5068745;28;20226;-81
2022/09/09 01:47:54;;;;;;;19.13;4.23;;;;;;;;;;5057196;28;20235;-81
2022/09/09 01:50:22;;;;;;;11.37;3.57;;;;;;;;;;5070064;28;20199;-81
2022/09/09 01:52:52;;;;;;;16.87;3.80;;;;;;;;;;5064839;28;20218;-81
2022/09/09 01:55:22;;;;;;;11.73;3.63;;;;;;;;;;5071688;28;20290;-82
2022/09/09 01:57:51;;;;;;;13.87;3.30;;;;;;;;;;5073084;28;20251;-81
2022/09/09 02:00:19;;;;;;;14.83;3.67;;;;;;;;;;5057978;28;20282;-81
2022/09/09 02:02:50;;;;;;;14.33;3.10;;;;;;;;;;5068756;28;20203;-81
2022/09/09 02:05:23;;;;;;;14.80;3.77;;;;;;;;;;5064979;28;20227;-82
2022/09/09 02:07:51;;;;;;;15.50;3.20;;;;;;;;;;5058289;28;20739;-82
2022/09/09 02:10:21;;;;;;;16.10;3.57;;;;;;;;;;5072740;28;20824;-81
2022/09/09 02:12:50;;;;;;;16.03;3.27;;;;;;;;;;5073612;28;20585;-81
2022/09/09 02:15:22;;;;;;;12.40;3.20;;;;;;;;;;5066912;28;20238;-82
2022/09/09 02:17:52;;;;;;;11.63;3.20;;;;;;;;;;5073111;28;20227;-82
2022/09/09 02:20:19;;;;;;;10.73;3.53;;;;;;;;;;5073136;28;20278;-81
2022/09/09 02:22:49;;;;;;;9.17;3.00;;;;;;;;;;5073803;28;20282;-81
2022/09/09 02:25:18;;;;;;;11.40;3.43;;;;;;;;;;5073308;28;20241;-82
2022/09/09 02:27:47;;;;;;;11.37;3.07;;;;;;;;;;5073088;28;20282;-81
2022/09/09 02:30:15;;;;;;;11.43;3.20;;;;;;;;;;5073772;28;20238;-81
2022/09/09 02:32:44;;;;;;;11.63;3.10;;;;;;;;;;5073885;28;20309;-81
2022/09/09 02:35:14;;;;;;;14.50;3.43;;;;;;;;;;5066288;28;20294;-82
2022/09/09 02:37:43;;;;;;;14.23;3.13;;;;;;;;;;5069746;28;20697;-81
2022/09/09 02:40:12;;;;;;;11.40;3.37;;;;;;;;;;5069768;28;20203;-82
2022/09/09 02:42:42;;;;;;;11.00;3.13;;;;;;;;;;5069236;28;20247;-81
2022/09/09 02:45:10;;;;;;;14.90;3.27;;;;;;;;;;5067457;28;20279;-81
2022/09/09 02:47:41;;;;;;;10.13;2.90;;;;;;;;;;5063256;28;20623;-82
2022/09/09 02:50:12;;;;;;;7.77;2.50;;;;;;;;;;5059647;28;20200;-82
2022/09/09 02:52:47;;;;;;;10.77;2.57;;;;;;;;;;5068719;28;20273;-81
2022/09/09 02:55:22;;;;;;;12.93;2.83;;;;;;;;;;5053773;28;20231;-81
2022/09/09 02:57:49;;;;;;;11.87;2.90;;;;;;;;;;5053769;28;20729;-82
2022/09/09 03:00:17;;;;;;;11.17;2.80;;;;;;;;;;5067574;28;20290;-81
2022/09/09 03:02:45;;;;;;;9.37;2.87;;;;;;;;;;5071408;28;20231;-81
2022/09/09 03:05:12;;;;;;;15.10;3.20;;;;;;;;;;5062076;28;20249;-81
2022/09/09 03:07:41;;;;;;;12.37;2.83;;;;;;;;;;5064498;28;20200;-82
2022/09/09 03:10:10;;;;;;;10.33;2.83;;;;;;;;;;5064121;28;20195;-81
2022/09/09 03:12:38;;;;;;;9.00;3.03;;;;;;;;;;5056282;28;20224;-81
2022/09/09 03:15:06;;;;;;;10.17;2.73;;;;;;;;;;5058970;28;20881;-82
2022/09/09 03:17:34;;;;;;;9.57;2.47;;;;;;;;;;5066266;28;20234;-81
2022/09/09 03:20:01;;;;;;;7.30;2.47;;;;;;;;;;5062149;28;20252;-81
2022/09/09 03:22:28;;;;;;;11.53;2.93;;;;;;;;;;5072712;28;20195;-80
2022/09/09 03:24:57;;;;;;;9.73;2.60;;;;;;;;;;5055436;28;20294;-81
2022/09/09 03:27:24;;;;;;;10.83;2.83;;;;;;;;;;5068219;28;20231;-81
2022/09/09 03:29:51;;;;;;;9.30;2.70;;;;;;;;;;5060212;28;20210;-80
2022/09/09 03:32:19;;;;;;;8.73;2.50;;;;;;;;;;5060641;28;20230;-81
2022/09/09 03:34:49;;;;;;;12.53;2.37;;;;;;;;;;5067533;28;20626;-81
2022/09/09 03:37:17;;;;;;;9.73;2.40;;;;;;;;;;5055231;28;20196;-80
2022/09/09 03:39:44;;;;;;;9.00;2.53;;;;;;;;;;5066673;28;20210;-81
2022/09/09 03:42:18;;;;;;;7.83;2.47;;;;;;;;;;5062160;28;20631;-81
2022/09/09 03:44:46;;;;;;;11.27;2.70;;;;;;;;;;5053682;28;20253;-81
2022/09/09 03:47:14;;;;;;;8.80;2.70;;;;;;;;;;5068775;28;20203;-81
2022/09/09 03:49:41;;;;;;;12.17;2.30;;;;;;;;;;5065098;28;20573;-82
2022/09/09 03:52:10;;;;;;;10.57;2.60;;;;;;;;;;5063863;28;20223;-81
2022/09/09 03:54:37;;;;;;;14.50;3.43;;;;;;;;;;5063845;28;20230;-81
2022/09/09 03:57:04;;;;;;;7.10;2.20;;;;;;;;;;5056752;28;20298;-81
2022/09/09 03:59:34;;;;;;;8.80;2.43;;;;;;;;;;5054368;28;20216;-81
2022/09/09 04:02:02;;;;;;;9.53;2.20;;;;;;;;;;5071624;28;20199;-81
2022/09/09 04:04:29;;;;;;;9.03;2.53;;;;;;;;;;5061818;28;20204;-81
2022/09/09 04:06:56;;;;;;;14.93;2.60;;;;;;;;;;5065410;28;20237;-81
2022/09/09 04:09:23;;;;;;;10.67;2.50;;;;;;;;;;5072110;28;20298;-81
2022/09/09 04:11:50;;;;;;;12.00;2.47;;;;;;;;;;5052855;28;20199;-81
2022/09/09 04:14:17;;;;;;;9.70;2.63;;;;;;;;;;5058410;28;20307;-81
2022/09/09 04:16:46;;;;;;;11.73;2.70;;;;;;;;;;5066288;28;20278;-81
2022/09/09 04:19:14;;;;;;;12.90;2.60;;;;;;;;;;5062317;28;20282;-81
2022/09/09 04:21:41;;;;;;;7.30;2.60;;;;;;;;;;5054415;28;20196;-80
2022/09/09 04:24:09;;;;;;;11.70;3.00;;;;;;;;;;5067165;28;20742;-81
2022/09/09 04:26:37;;;;;;;7.70;2.47;;;;;;;;;;5063462;28;20200;-80
2022/09/09 04:29:04;;;;;;;9.77;2.93;;;;;;;;;;5063796;28;20198;-80
2022/09/09 04:31:32;;;;;;;11.03;2.87;;;;;;;;;;5065449;28;20234;-80
2022/09/09 04:34:05;;;;;;;11.57;2.70;;;;;;;;;;5068022;28;20241;-80
2022/09/09 04:36:32;;;;;;;11.17;3.00;;;;;;;;;;5055751;28;20256;-80
2022/09/09 04:39:01;;;;;;;12.50;2.93;;;;;;;;;;5062289;28;20858;-80
2022/09/09 04:41:28;;;;;;;14.10;2.73;;;;;;;;;;5057482;28;20211;-81
2022/09/09 04:43:56;;;;;;;12.93;3.13;;;;;;;;;;5068383;28;20254;-80
2022/09/09 04:46:23;;;;;;;8.87;2.63;;;;;;;;;;5066318;28;20196;-80
2022/09/09 04:48:51;;;;;;;12.97;3.00;;;;;;;;;;5060158;28;20286;-80
2022/09/09 04:51:20;;;;;;;12.43;2.67;;;;;;;;;;5059383;28;20231;-80
2022/09/09 04:53:48;;;;;;;13.13;2.87;;;;;;;;;;5066289;28;20315;-80
2022/09/09 04:56:16;;;;;;;9.60;2.60;;;;;;;;;;5069958;28;20196;-80
2022/09/09 04:58:45;;;;;;;10.47;3.23;;;;;;;;;;5065469;28;20247;-81
2022/09/09 05:01:13;;;;;;;10.43;3.37;;;;;;;;;;5053331;28;20287;-80
2022/09/09 05:03:40;;;;;;;10.70;2.73;;;;;;;;;;5059176;28;20270;-80
2022/09/09 05:06:09;;;;;;;14.77;3.20;;;;;;;;;;5055855;28;20281;-79
2022/09/09 05:08:38;;;;;;;14.03;2.93;;;;;;;;;;5065844;28;20947;-81
2022/09/09 05:11:06;;;;;;;12.40;2.97;;;;;;;;;;5064019;28;20196;-81
2022/09/09 05:13:33;;;;;;;8.60;3.00;;;;;;;;;;5059377;28;20307;-81
2022/09/09 05:16:00;;;;;;;13.27;3.10;;;;;;;;;;5058676;28;20223;-81
2022/09/09 05:18:27;;;;;;;14.70;2.87;;;;;;;;;;5067041;28;20238;-81
2022/09/09 05:21:00;;;;;;;13.63;3.77;;;;;;;;;;5065485;28;20684;-81
2022/09/09 05:23:27;;;;;;;12.60;3.13;;;;;;;;;;5052986;28;20199;-81
2022/09/09 05:25:59;;;;;;;13.30;3.10;;;;;;;;;;5061530;28;20203;-81
2022/09/09 05:28:26;;;;;;;12.17;3.53;;;;;;;;;;5068882;28;20223;-81
2022/09/09 05:30:58;;;;;;;13.83;3.73;;;;;;;;;;5062648;28;20200;-81
2022/09/09 05:33:26;;;;;;;15.80;4.33;;;;;;;;;;5061827;28;20570;-81
2022/09/09 05:35:57;;;;;;;16.77;3.93;;;;;;;;;;5066087;28;20207;-81
2022/09/09 05:38:25;;;;;;;15.07;3.40;;;;;;;;;;5072565;28;20233;-81
2022/09/09 05:40:53;;;;;;;14.17;3.17;;;;;;;;;;5077277;28;20199;-81
2022/09/09 05:43:21;;;;;;;12.13;3.37;;;;;;;;;;5068642;28;20226;-81
2022/09/09 05:45:49;;;;;;;13.07;3.20;;;;;;;;;;5069566;28;20234;-81
2022/09/09 05:48:16;;;;;;;10.67;3.13;;;;;;;;;;5064036;28;20239;-81
2022/09/09 05:50:44;;;;;;;10.90;2.83;;;;;;;;;;5073636;28;20282;-81
2022/09/09 05:53:12;;;;;;;11.00;2.80;;;;;;;;;;5063251;28;20211;-81
2022/09/09 05:55:39;;;;;;;13.27;3.50;;;;;;;;;;5052380;28;20223;-82
2022/09/09 05:58:06;;;;;;;9.60;2.97;;;;;;;;;;5064407;28;20277;-81
2022/09/09 06:00:35;;;;;;;12.03;2.90;;;;;;;;;;5066150;28;20854;-82
2022/09/09 06:03:03;;;;;;;12.40;3.33;;;;;;;;;;5065574;28;20290;-82
2022/09/09 06:05:30;;;;;;;9.53;2.90;;;;;;;;;;5070818;28;20615;-81
2022/09/09 06:07:57;;;;;;;12.00;2.73;;;;;;;;;;5060716;28;20204;-82
2022/09/09 06:10:25;;;;;;;12.33;3.13;;;;;;;;;;5063973;28;20300;-82
2022/09/09 06:12:54;;;;;;;13.03;2.97;;;;;;;;;;5064340;28;20203;-81
2022/09/09 06:15:21;;;;;;;15.27;3.03;;;;;;;;;;5055700;28;20746;-82
2022/09/09 06:17:55;;;;;;;12.43;3.00;;;;;;;;;;5059200;28;20283;-82
2022/09/09 06:20:22;;;;;;;16.13;3.43;;;;;;;;;;5061637;28;20663;-82
2022/09/09 06:22:50;;;;;;;11.43;3.10;;;;;;;;;;5071744;28;20202;-82
2022/09/09 06:25:18;;;;;;;16.13;3.13;;;;;;;;;;5064493;28;20235;-81
2022/09/09 06:27:50;;;;;;;10.97;2.80;;;;;;;;;;5063383;28;20203;-82
2022/09/09 06:30:18;;;;;;;17.30;3.00;;;;;;;;;;5064985;28;20210;-81
2022/09/09 06:32:45;;;;;;;12.23;2.87;;;;;;;;;;5068181;28;20646;-82
2022/09/09 06:35:13;;;;;;;12.47;2.90;;;;;;;;;;5059551;28;20292;-82
2022/09/09 06:37:41;;;;;;;10.77;3.30;;;;;;;;;;5066270;28;20233;-81
2022/09/09 06:40:08;;;;;;;9.77;2.70;;;;;;;;;;5064767;28;20282;-82
2022/09/09 06:42:36;;;;;;;11.27;3.00;;;;;;;;;;5067660;28;20314;-82
2022/09/09 06:45:03;;;;;;;10.43;2.60;;;;;;;;;;5059523;28;20664;-82
2022/09/09 06:47:30;;;;;;;6.93;2.35;;;;;;;;;;5065263;28;20237;-82
2022/09/09 06:49:58;;;;;;;11.40;2.70;;;;;;;;;;5055013;28;20210;-81
2022/09/09 06:52:27;;;;;;;8.30;2.47;;;;;;;;;;5066477;28;20199;-82
2022/09/09 06:54:54;;;;;;;7.70;2.63;;;;;;;;;;5063899;28;20223;-81
2022/09/09 06:57:21;;;;;;;8.45;2.13;;;;;;;;;;5054808;28;20278;-82
2022/09/09 06:59:49;;;;;;;8.57;2.50;;;;;;;;;;5066557;28;20266;-82
2022/09/09 07:02:16;;;;;;;8.57;2.22;;;;;;;;;;5058152;28;20199;-82
2022/09/09 07:04:44;;;;;;;9.40;2.22;;;;;;;;;;5060482;28;20274;-81
2022/09/09 07:07:13;;;;;;;6.47;2.05;;;;;;;;;;5059703;28;20598;-81
2022/09/09 07:09:42;;;;;;;12.00;2.30;;;;;;;;;;5055563;28;20245;-83
2022/09/09 07:12:09;;;;;;;9.60;2.38;;;;;;;;;;5052702;28;20206;-83
2022/09/09 07:14:37;;;;;;;10.35;2.03;;;;;;;;;;5062112;28;20306;-81
2022/09/09 07:17:04;;;;;;;9.73;2.60;;;;;;;;;;5063102;28;20199;-82
2022/09/09 07:19:31;;;;;;;9.13;2.75;;;;;;;;;;5063506;28;20239;-82
2022/09/09 07:21:58;;;;;;;12.13;3.17;;;;;;;;;;5060793;28;20291;-82
2022/09/09 07:24:30;;;;;;;8.95;2.38;;;;;;;;;;5056829;28;20227;-82
2022/09/09 07:26:59;;;;;;;8.93;2.67;;;;;;;;;;5072501;28;20675;-82
2022/09/09 07:29:26;;;;;;;8.07;2.20;;;;;;;;;;5061164;28;20857;-82
2022/09/09 07:31:53;;;;;;;12.63;2.67;;;;;;;;;;5072840;28;20230;-82
2022/09/09 07:34:21;;;;;;;6.93;2.30;;;;;;;;;;5057404;28;20216;-82
2022/09/09 07:36:48;;;;;;;7.68;2.72;;;;;;;;;;5058197;28;20576;-82
2022/09/09 07:39:17;;;;;;;6.60;2.20;;;;;;;;;;5053533;28;20798;-82
2022/09/09 07:41:45;;;;;;;8.57;2.47;;;;;;;;;;5052101;28;20668;-82
2022/09/09 07:44:14;;;;;;;6.57;2.67;;;;;;;;;;5070890;28;20310;-82
2022/09/09 07:46:42;;;;;;;8.80;2.65;;;;;;;;;;5061988;28;20283;-82
2022/09/09 07:49:10;;;;;;;8.43;2.25;;;;;;;;;;5070481;28;20230;-82
2022/09/09 07:51:38;;;;;;;9.55;2.60;;;;;;;;;;5063240;28;20689;-82
2022/09/09 07:54:06;;;;;;;10.13;2.55;;;;;;;;;;5061392;28;20867;-82
2022/09/09 07:56:35;;;;;;;8.85;2.50;;;;;;;;;;5061734;28;20207;-82
2022/09/09 07:59:04;;;;;;;7.75;2.63;;;;;;;;;;5052899;28;20224;-82
2022/09/09 08:01:33;;;;;;;8.57;2.70;;;;;;;;;;5059383;28;20762;-82
2022/09/09 08:04:02;;;;;;;9.05;2.58;;;;;;;;;;5061561;28;20211;-82
2022/09/09 08:06:30;;;;;;;8.85;2.15;;;;;;;;;;5052099;28;20283;-82
2022/09/09 08:08:57;;;;;;;9.45;2.45;;;;;;;;;;5056981;28;20295;-82
2022/09/09 08:11:25;;;;;;;10.52;2.10;;;;;;;;;;5052351;28;20282;-82
2022/09/09 08:13:53;;;;;;;11.32;2.28;;;;;;;;;;5052430;28;20299;-81
2022/09/09 08:16:21;;;;;;;10.48;2.30;;;;;;;;;;5068442;28;20237;-81
2022/09/09 08:18:51;;;;;;;7.45;2.25;;;;;;;;;;5065608;28;20211;-81
2022/09/09 08:21:19;;;;;;;9.48;1.98;;;;;;;;;;5062426;28;20397;-82
2022/09/09 08:23:47;;;;;;;6.22;1.75;;;;;;;;;;5067793;28;20321;-81
2022/09/09 08:26:15;;;;;;;7.63;2.03;;;;;;;;;;5056860;28;20222;-81
2022/09/09 08:28:43;;;;;;;12.00;2.10;;;;;;;;;;5071864;28;20233;-81
2022/09/09 08:31:11;;;;;;;7.57;2.00;;;;;;;;;;5066288;28;20290;-81
2022/09/09 08:33:39;;;;;;;9.27;2.22;;;;;;;;;;5069161;28;20741;-81
2022/09/09 08:36:10;;;;;;;8.00;1.95;;;;;;;;;;5058734;28;20246;-82
2022/09/09 08:38:38;;;;;;;7.78;1.85;;;;;;;;;;5071766;28;20290;-82
2022/09/09 08:41:09;;;;;;;7.88;1.75;;;;;;;;;;5056274;28;20202;-82
2022/09/09 08:43:36;;;;;;;5.00;1.65;;;;;;;;;;5065812;28;20266;-81
2022/09/09 08:46:07;;;;;;;6.95;1.83;;;;;;;;;;5071985;28;20239;-82
2022/09/09 08:48:45;;;;;;;7.80;1.88;;;;;;;;;;5071323;28;20282;-82
2022/09/09 08:51:14;;;;;;;8.38;1.90;;;;;;;;;;5071841;28;20272;-82
2022/09/09 08:53:44;;;;;;;4.85;1.75;;;;;;;;;;5059766;28;20283;-82
2022/09/09 08:56:13;;;;;;;8.15;1.85;;;;;;;;;;5057447;28;20667;-82
2022/09/09 08:58:45;;;;;;;6.50;1.67;;;;;;;;;;5059094;28;20247;-82
2022/09/09 09:01:24;;;;;;;7.15;1.73;;;;;;;;;;5061960;28;20203;-82
2022/09/09 09:03:56;;;;;;;7.53;1.67;;;;;;;;;;5054056;28;20326;-82
2022/09/09 09:06:36;;;;;;;6.63;2.10;;;;;;;;;;5067167;28;20906;-82
2022/09/09 09:09:05;;;;;;;6.95;1.80;;;;;;;;;;5067175;28;20226;-82
2022/09/09 09:11:36;;;;;;;7.43;1.92;;;;;;;;;;5074953;28;20207;-82
2022/09/09 09:14:04;;;;;;;7.70;1.80;;;;;;;;;;5074037;28;20310;-82
2022/09/09 09:16:35;;;;;;;6.03;1.58;;;;;;;;;;5075424;28;20234;-82
2022/09/09 09:19:02;;;;;;;6.60;1.50;;;;;;;;;;5073325;28;20214;-82
2022/09/09 09:21:36;;;;;;;5.65;1.67;;;;;;;;;;5056276;28;20235;-82
2022/09/09 09:24:07;;;;;;;9.77;2.03;;;;;;;;;;5065616;28;20226;-82
2022/09/09 09:26:35;;;;;;;6.05;1.98;;;;;;;;;;5068028;28;20207;-82
2022/09/09 09:29:03;;;;;;;6.22;1.60;;;;;;;;;;5054859;28;20239;-82
2022/09/09 09:31:31;;;;;;;7.55;1.80;;;;;;;;;;5057250;28;20675;-82
2022/09/09 09:33:58;;;;;;;7.88;1.75;;;;;;;;;;5069216;28;20223;-81
2022/09/09 09:36:27;;;;;;;5.90;1.70;;;;;;;;;;5073799;28;20199;-82
2022/09/09 09:38:57;;;;;;;7.35;2.03;;;;;;;;;;5065739;28;20642;-81
2022/09/09 09:41:31;;;;;;;6.20;1.48;;;;;;;;;;5071232;28;20294;-82
2022/09/09 09:43:58;;;;;;;7.97;1.60;;;;;;;;;;5053093;28;20283;-82
2022/09/09 09:46:26;;;;;;;6.40;1.60;;;;;;;;;;5070118;28;20256;-82
2022/09/09 09:49:00;;;;;;;8.50;1.80;;;;;;;;;;5057043;28;20283;-82
2022/09/09 09:51:28;;;;;;;4.72;1.33;;;;;;;;;;5070968;28;20286;-82
2022/09/09 09:54:05;;;;;;;6.63;1.45;;;;;;;;;;5073013;28;20230;-82
2022/09/09 09:56:33;;;;;;;5.55;1.55;;;;;;;;;;5071747;28;20670;-82
2022/09/09 09:59:00;;;;;;;5.40;1.30;;;;;;;;;;5064609;28;20225;-83
2022/09/09 10:01:29;;;;;;;6.35;1.48;;;;;;;;;;5062322;28;20286;-83
2022/09/09 10:03:58;;;;;;;5.97;1.58;;;;;;;;;;5065420;28;20202;-82
2022/09/09 10:06:36;;;;;;;6.97;1.30;;;;;;;;;;5072884;28;20238;-82
2022/09/09 10:09:08;;;;;;;9.35;1.70;;;;;;;;;;5063638;28;20700;-82
2022/09/09 10:11:42;;;;;;;5.78;1.25;;;;;;;;;;5064898;28;20203;-82
2022/09/09 10:14:17;;;;;;;5.20;1.40;;;;;;;;;;5066485;28;20621;-82
2022/09/09 10:16:49;;;;;;;5.05;1.30;;;;;;;;;;5071057;28;20198;-82
2022/09/09 10:19:18;;;;;;;5.20;1.45;;;;;;;;;;5069507;28;20226;-82
2022/09/09 10:22:00;;;;;;;5.75;1.48;;;;;;;;;;5057629;28;20201;-82
2022/09/09 10:24:39;;;;;;;6.43;1.58;;;;;;;;;;5070781;28;20222;-82
2022/09/09 10:27:12;;;;;;;3.63;1.40;;;;;;;;;;5060907;28;20204;-82
2022/09/09 10:29:50;;;;;;;6.65;1.40;;;;;;;;;;5066578;28;20708;-82
2022/09/09 10:32:27;;;;;;;5.40;1.40;;;;;;;;;;5060124;28;20241;-82
2022/09/09 10:34:58;;;;;;;5.75;1.17;;;;;;;;;;5056768;28;20268;-84
2022/09/09 10:37:33;;;;;;;6.05;1.42;;;;;;;;;;5070497;28;20195;-83
2022/09/09 10:40:06;;;;;;;8.38;1.40;;;;;;;;;;5066414;28;20223;-82
2022/09/09 10:42:34;;;;;;;5.05;1.27;;;;;;;;;;5070841;28;20265;-82
2022/09/09 10:45:10;;;;;;;5.95;1.45;;;;;;;;;;5066047;28;20196;-82
2022/09/09 10:47:52;;;;;;;5.05;1.45;;;;;;;;;;5056646;28;20199;-82
2022/09/09 10:50:30;;;;;;;4.90;1.50;;;;;;;;;;5058798;28;20200;-82
2022/09/09 10:53:02;;;;;;;4.68;1.58;;;;;;;;;;5060160;28;20206;-82
2022/09/09 10:55:35;;;;;;;5.15;1.60;;;;;;;;;;5071088;28;20242;-83
2022/09/09 10:58:04;;;;;;;4.43;1.30;;;;;;;;;;5059794;28;20228;-82
2022/09/09 11:00:37;;;;;;;5.88;1.38;;;;;;;;;;5065061;28;20937;-82
2022/09/09 11:03:07;;;;;;;6.63;1.30;;;;;;;;;;5056006;28;20235;-82
2022/09/09 11:05:39;;;;;;;5.35;1.20;;;;;;;;;;5072902;28;20278;-82
2022/09/09 11:08:11;;;;;;;4.88;1.30;;;;;;;;;;5072447;28;20195;-82
2022/09/09 11:10:42;;;;;;;3.80;1.17;;;;;;;;;;5066408;28;20199;-82
2022/09/09 11:13:12;;;;;;;6.47;1.63;;;;;;;;;;5061714;28;20246;-82
2022/09/09 11:15:42;;;;;;;4.68;1.35;;;;;;;;;;5060818;28;20312;-81
2022/09/09 11:18:13;;;;;;;4.93;1.40;;;;;;;;;;5067269;28;20203;-82
2022/09/09 11:20:40;;;;;;;7.57;1.65;;;;;;;;;;5055358;28;20291;-82
2022/09/09 11:23:11;;;;;;;8.40;1.52;;;;;;;;;;5065539;28;20222;-82
2022/09/09 11:25:41;;;;;;;8.70;1.77;;;;;;;;;;5062802;28;20239;-82
2022/09/09 11:28:22;;;;;;;5.60;1.70;;;;;;;;;;5054404;28;20231;-82
2022/09/09 11:30:54;;;;;;;6.05;1.60;;;;;;;;;;5071675;28;20754;-83
2022/09/09 11:33:33;;;;;;;5.65;1.55;;;;;;;;;;5069194;28;20239;-81
2022/09/09 11:36:13;;;;;;;6.80;1.70;;;;;;;;;;5070089;28;20258;-82
2022/09/09 11:38:45;;;;;;;8.10;1.80;;;;;;;;;;5060489;28;20267;-82
2022/09/09 11:41:13;;;;;;;4.53;1.63;;;;;;;;;;5059960;28;20195;-81
2022/09/09 11:43:43;;;;;;;6.82;1.90;;;;;;;;;;5059636;28;20226;-82
2022/09/09 11:46:11;;;;;;;4.70;1.63;;;;;;;;;;5070422;28;20656;-82
2022/09/09 11:48:39;;;;;;;6.32;1.17;;;;;;;;;;5064225;28;21844;-81
2022/09/09 11:51:08;;;;;;;5.43;1.40;;;;;;;;;;5061182;28;20200;-81
2022/09/09 11:53:36;;;;;;;5.55;1.30;;;;;;;;;;5066882;28;20203;-81
2022/09/09 11:56:07;;;;;;;4.95;1.10;;;;;;;;;;5075877;28;20309;-81
2022/09/09 11:58:49;;;;;;;6.15;1.20;;;;;;;;;;5062928;28;20274;-81
2022/09/09 12:01:32;;;;;;;5.28;1.50;;;;;;;;;;5058111;28;20575;-81
2022/09/09 12:04:17;;;;;;;3.85;1.15;;;;;;;;;;5067668;28;20697;-82
2022/09/09 12:06:46;;;;;;;2.42;0.90;;;;;;;;;;5050869;28;20227;-82
2022/09/09 12:09:19;;;;;;;4.15;1.25;;;;;;;;;;5062878;28;20670;-82
2022/09/09 12:11:46;;;;;;;3.72;1.10;;;;;;;;;;5065124;28;21035;-82
2022/09/09 12:14:21;;;;;;;4.32;0.93;;;;;;;;;;5055986;28;20196;-82
2022/09/09 12:16:50;;;;;;;3.35;1.23;;;;;;;;;;5059012;28;20312;-82
2022/09/09 12:19:20;;;;;;;3.33;1.02;;;;;;;;;;5057020;28;20231;-81
2022/09/09 12:21:51;;;;;;;5.25;1.25;;;;;;;;;;5067626;28;20204;-82
2022/09/09 12:24:22;;;;;;;2.17;1.00;;;;;;;;;;5061726;28;20208;-82
2022/09/09 12:26:53;;;;;;;5.35;1.05;;;;;;;;;;5064725;28;20326;-81
2022/09/09 12:29:24;;;;;;;3.20;1.10;;;;;;;;;;5063509;28;20687;-81
2022/09/09 12:31:57;;;;;;;4.82;1.00;;;;;;;;;;5069254;28;20648;-82
2022/09/09 12:34:31;;;;;;;4.30;1.30;;;;;;;;;;5061280;28;20204;-82
2022/09/09 12:36:59;;;;;;;5.05;1.20;;;;;;;;;;5059753;28;20219;-82
2022/09/09 12:39:31;;;;;;;4.90;1.25;;;;;;;;;;5061687;28;20197;-82
2022/09/09 12:41:58;;;;;;;2.63;1.10;;;;;;;;;;5060035;28;20196;-81
2022/09/09 12:44:27;;;;;;;6.88;1.27;;;;;;;;;;5066014;28;20277;-82
2022/09/09 12:46:56;;;;;;;3.72;1.35;;;;;;;;;;5075080;28;20658;-82
2022/09/09 12:49:30;;;;;;;6.70;1.40;;;;;;;;;;5072809;28;20286;-82
2022/09/09 12:51:58;;;;;;;3.33;1.02;;;;;;;;;;5067350;28;20202;-82
2022/09/09 12:54:25;;;;;;;7.82;1.27;;;;;;;;;;5069503;28;20294;-82
2022/09/09 12:56:53;;;;;;;4.00;1.05;;;;;;;;;;5065251;28;20282;-82
2022/09/09 12:59:24;;;;;;;6.15;1.15;;;;;;;;;;5070861;28;20373;-82
2022/09/09 13:01:58;;;;;;;3.55;0.90;;;;;;;;;;5070531;28;20199;-82
2022/09/09 13:04:26;;;;;;;3.60;0.93;;;;;;;;;;5068364;28;20225;-82
2022/09/09 13:06:53;;;;;;;2.60;0.90;;;;;;;;;;5072204;28;20232;-82
2022/09/09 13:09:21;;;;;;;1.75;1.02;;;;;;;;;;5065353;28;20286;-82
2022/09/09 13:11:50;;;;;;;2.83;0.80;;;;;;;;;;5064020;28;20196;-82
2022/09/09 13:14:20;;;;;;;2.17;0.52;;;;;;;;;;5064374;28;20663;-82
2022/09/09 13:16:56;;;;;;;1.35;0.57;;;;;;;;;;5074789;28;20222;-82
2022/09/09 13:19:28;;;;;;;2.55;1.02;;;;;;;;;;5055631;28;20192;-82
2022/09/09 13:21:55;;;;;;;3.25;1.00;;;;;;;;;;5070074;28;20199;-82
2022/09/09 13:24:27;;;;;;;3.28;1.02;;;;;;;;;;5069451;28;20267;-82
2022/09/09 13:26:57;;;;;;;3.28;1.00;;;;;;;;;;5069539;28;20192;-82
2022/09/09 13:29:24;;;;;;;2.20;1.05;;;;;;;;;;5062702;28;20199;-82
2022/09/09 13:31:53;;;;;;;3.88;1.17;;;;;;;;;;5071500;28;20290;-81
2022/09/09 13:34:32;;;;;;;5.20;1.30;;;;;;;;;;5073703;28;20207;-82
2022/09/09 13:37:02;;;;;;;6.60;1.50;;;;;;;;;;5074892;28;20222;-82
2022/09/09 13:39:30;;;;;;;4.78;1.48;;;;;;;;;;5073030;28;20207;-82
2022/09/09 13:41:57;;;;;;;3.55;1.48;;;;;;;;;;5078045;28;20203;-82
2022/09/09 13:44:25;;;;;;;5.35;1.40;;;;;;;;;;5062047;28;20223;-81
2022/09/09 13:47:03;;;;;;;3.28;1.00;;;;;;;;;;5064835;28;20221;-82
2022/09/09 13:49:33;;;;;;;6.03;1.35;;;;;;;;;;5058782;28;20233;-82
2022/09/09 13:52:11;;;;;;;3.65;1.30;;;;;;;;;;5067225;28;20211;-81
2022/09/09 13:54:38;;;;;;;4.90;1.20;;;;;;;;;;5068170;28;20207;-82
2022/09/09 13:57:05;;;;;;;5.90;1.30;;;;;;;;;;5071641;28;20305;-81
2022/09/09 13:59:32;;;;;;;7.30;1.35;;;;;;;;;;5062478;28;20281;-82
2022/09/09 14:02:01;;;;;;;7.05;1.55;;;;;;;;;;5075357;28;20638;-82
2022/09/09 14:04:28;;;;;;;4.43;1.17;;;;;;;;;;5067531;28;20199;-82
2022/09/09 14:06:58;;;;;;;2.72;1.00;;;;;;;;;;5077311;28;20205;-82
2022/09/09 14:09:25;;;;;;;5.97;1.20;;;;;;;;;;5067304;28;20636;-81
2022/09/09 14:11:52;;;;;;;3.05;1.42;;;;;;;;;;5072686;28;20199;-82
2022/09/09 14:14:20;;;;;;;5.15;1.60;;;;;;;;;;5064090;28;20230;-82
2022/09/09 14:16:47;;;;;;;6.68;1.40;;;;;;;;;;5064846;28;20223;-82
2022/09/09 14:19:14;;;;;;;5.63;1.80;;;;;;;;;;5067522;28;20226;-82
2022/09/09 14:21:41;;;;;;;5.63;1.45;;;;;;;;;;5066932;28;20278;-82
2022/09/09 14:24:10;;;;;;;6.78;2.03;;;;;;;;;;5067632;28;20235;-82
2022/09/09 14:26:37;;;;;;;7.35;1.73;;;;;;;;;;5067352;28;20283;-82
2022/09/09 14:29:04;;;;;;;4.18;1.50;;;;;;;;;;5071784;28;20706;-82
2022/09/09 14:31:32;;;;;;;3.17;1.17;;;;;;;;;;5071722;28;20765;-83
2022/09/09 14:33:59;;;;;;;3.53;1.20;;;;;;;;;;5070086;28;20205;-83
2022/09/09 14:36:27;;;;;;;4.20;1.42;;;;;;;;;;5069778;28;20318;-82
2022/09/09 14:38:54;;;;;;;3.40;0.98;;;;;;;;;;5056767;28;20600;-82
2022/09/09 14:41:23;;;;;;;2.75;0.98;;;;;;;;;;5083486;28;20252;-82
2022/09/09 14:43:51;;;;;;;3.63;0.95;;;;;;;;;;5060346;28;20272;-82
2022/09/09 14:46:19;;;;;;;2.45;0.90;;;;;;;;;;5073254;28;20244;-82
2022/09/09 14:48:48;;;;;;;2.45;0.95;;;;;;;;;;5057092;28;20229;-82
2022/09/09 14:51:16;;;;;;;3.10;0.60;;;;;;;;;;5064405;28;20225;-82
2022/09/09 14:53:44;;;;;;;1.95;0.50;;;;;;;;;;5072098;28;20282;-82